createdAt,value
2022-10-22T00:01:01.437Z,15.80
2022-10-22T00:03:27.978Z,15.85
2022-10-22T00:05:54.446Z,15.85
2022-10-22T00:08:21.303Z,15.61
2022-10-22T00:10:47.842Z,15.56
2022-10-22T00:13:15.305Z,15.52
2022-10-22T00:15:44.759Z,15.59
2022-10-22T00:18:11.285Z,15.59
2022-10-22T00:20:37.878Z,15.69
2022-10-22T00:23:04.378Z,15.78
2022-10-22T00:25:31.061Z,15.83
2022-10-22T00:27:57.553Z,15.87
2022-10-22T00:30:24.028Z,15.92
2022-10-22T00:32:50.483Z,15.79
2022-10-22T00:35:17.014Z,15.74
2022-10-22T00:37:43.447Z,15.76
2022-10-22T00:40:10.492Z,15.73
2022-10-22T00:42:36.974Z,15.66
2022-10-22T00:45:09.896Z,15.51
2022-10-22T00:48:11.123Z,15.43
2022-10-22T00:50:45.954Z,15.49
2022-10-22T00:53:18.535Z,15.47
2022-10-22T00:55:46.580Z,15.32
2022-10-22T00:58:13.621Z,15.48
2022-10-22T01:00:40.257Z,15.61
2022-10-22T01:03:08.195Z,15.43
2022-10-22T01:05:42.840Z,15.09
2022-10-22T01:08:17.397Z,14.91
2022-10-22T01:10:58.262Z,14.92
2022-10-22T01:13:48.649Z,14.99
2022-10-22T01:16:39.311Z,14.89
2022-10-22T01:19:36.184Z,14.98
2022-10-22T01:22:17.758Z,15.16
2022-10-22T01:25:00.628Z,15.00
2022-10-22T01:27:45.400Z,15.06
2022-10-22T01:30:14.138Z,15.13
2022-10-22T01:32:48.292Z,15.12
2022-10-22T01:35:18.259Z,15.24
2022-10-22T01:37:46.366Z,15.41
2022-10-22T01:40:15.281Z,15.54
2022-10-22T01:42:41.927Z,15.59
2022-10-22T01:45:15.042Z,15.68
2022-10-22T01:47:50.290Z,15.74
2022-10-22T01:50:40.042Z,15.76
2022-10-22T01:53:18.638Z,15.78
2022-10-22T01:56:16.091Z,15.62
2022-10-22T01:58:58.077Z,15.62
2022-10-22T02:01:50.392Z,15.62
2022-10-22T02:04:38.176Z,15.69
2022-10-22T02:07:07.927Z,15.66
2022-10-22T02:09:34.987Z,15.64
2022-10-22T02:14:34.394Z,15.73
2022-10-22T02:17:01.477Z,15.53
2022-10-22T02:19:34.224Z,15.43
2022-10-22T02:22:00.795Z,15.40
2022-10-22T02:24:27.528Z,15.30
2022-10-22T02:27:22.927Z,15.47
2022-10-22T02:30:07.625Z,15.62
2022-10-22T02:33:02.926Z,15.56
2022-10-22T02:35:30.527Z,15.14
2022-10-22T02:37:57.893Z,15.17
2022-10-22T02:40:24.785Z,15.21
2022-10-22T02:42:51.667Z,15.21
2022-10-22T02:45:19.633Z,15.21
2022-10-22T02:47:46.291Z,15.14
2022-10-22T02:50:13.123Z,15.41
2022-10-22T02:52:39.861Z,15.37
2022-10-22T02:55:08.261Z,15.48
2022-10-22T02:57:34.716Z,15.65
2022-10-22T03:00:01.185Z,15.78
2022-10-22T03:02:27.759Z,15.89
2022-10-22T03:04:54.239Z,15.71
2022-10-22T03:07:20.675Z,15.65
2022-10-22T03:09:47.137Z,15.67
2022-10-22T03:12:13.713Z,15.77
2022-10-22T03:14:40.243Z,15.90
2022-10-22T03:17:06.728Z,15.93
2022-10-22T03:19:33.339Z,16.05
2022-10-22T03:22:05.882Z,16.04
2022-10-22T03:24:36.611Z,16.01
2022-10-22T03:27:03.079Z,16.02
2022-10-22T03:29:32.225Z,16.09
2022-10-22T03:31:58.727Z,15.89
2022-10-22T03:34:25.174Z,15.97
2022-10-22T03:36:52.062Z,16.00
2022-10-22T03:39:18.969Z,15.91
2022-10-22T03:41:46.545Z,16.03
2022-10-22T03:44:13.074Z,15.90
2022-10-22T03:46:39.633Z,15.80
2022-10-22T03:49:06.065Z,15.78
2022-10-22T03:51:32.568Z,15.77
2022-10-22T03:53:59.063Z,15.68
2022-10-22T03:56:26.176Z,15.84
2022-10-22T03:58:56.279Z,15.83
2022-10-22T04:01:23.476Z,15.94
2022-10-22T04:03:50.246Z,15.89
2022-10-22T04:06:16.951Z,15.89
2022-10-22T04:08:45.225Z,15.76
2022-10-22T04:11:12.923Z,15.84
2022-10-22T04:13:58.926Z,15.84
2022-10-22T04:16:27.560Z,15.92
2022-10-22T04:18:57.213Z,15.90
2022-10-22T04:21:24.491Z,15.90
2022-10-22T04:23:52.824Z,15.90
2022-10-22T04:26:20.615Z,15.89
2022-10-22T04:28:48.638Z,15.82
2022-10-22T04:31:17.919Z,15.86
2022-10-22T04:33:44.624Z,15.83
2022-10-22T04:36:16.009Z,15.92
2022-10-22T04:38:43.767Z,15.82
2022-10-22T04:41:15.106Z,15.96
2022-10-22T04:43:42.600Z,15.95
2022-10-22T04:46:09.908Z,15.86
2022-10-22T04:48:39.904Z,15.97
2022-10-22T04:51:06.695Z,16.07
2022-10-22T04:53:34.310Z,16.07
2022-10-22T04:56:33.372Z,16.08
2022-10-22T04:59:01.754Z,16.04
2022-10-22T05:01:31.565Z,15.98
2022-10-22T05:04:00.406Z,15.85
2022-10-22T05:06:27.150Z,15.91
2022-10-22T05:08:55.450Z,15.95
2022-10-22T05:11:25.553Z,15.89
2022-10-22T05:13:51.917Z,15.91
2022-10-22T05:16:18.991Z,15.89
2022-10-22T05:18:45.548Z,15.87
2022-10-22T05:21:14.755Z,15.81
2022-10-22T05:23:41.875Z,15.80
2022-10-22T05:26:10.282Z,15.71
2022-10-22T05:28:37.256Z,15.67
2022-10-22T05:31:04.944Z,15.63
2022-10-22T05:33:32.724Z,15.66
2022-10-22T05:35:59.824Z,15.53
2022-10-22T05:38:26.385Z,15.48
2022-10-22T05:41:03.741Z,15.59
2022-10-22T05:43:30.431Z,15.43
2022-10-22T05:46:01.898Z,15.39
2022-10-22T05:48:28.527Z,15.43
2022-10-22T05:50:55.034Z,15.49
2022-10-22T05:53:21.644Z,15.44
2022-10-22T05:55:48.421Z,15.23
2022-10-22T05:58:15.037Z,14.94
2022-10-22T06:00:41.988Z,14.87
2022-10-22T06:03:10.943Z,14.92
2022-10-22T06:05:38.055Z,14.93
2022-10-22T06:08:04.941Z,14.89
2022-10-22T06:10:31.693Z,14.88
2022-10-22T06:12:58.188Z,14.90
2022-10-22T06:15:24.956Z,14.95
2022-10-22T06:17:51.416Z,15.03
2022-10-22T06:20:17.942Z,15.03
2022-10-22T06:22:44.401Z,15.10
2022-10-22T06:25:10.868Z,15.03
2022-10-22T06:27:37.301Z,15.04
2022-10-22T06:30:04.177Z,14.93
2022-10-22T06:32:31.229Z,14.91
2022-10-22T06:34:57.703Z,15.00
2022-10-22T06:37:24.208Z,15.14
2022-10-22T06:39:51.085Z,15.30
2022-10-22T06:42:17.585Z,15.41
2022-10-22T06:44:44.388Z,15.39
2022-10-22T06:47:11.022Z,15.28
2022-10-22T06:49:37.628Z,15.17
2022-10-22T06:52:04.283Z,15.11
2022-10-22T06:54:30.911Z,15.01
2022-10-22T06:56:57.368Z,15.11
2022-10-22T06:59:24.076Z,15.00
2022-10-22T07:01:53.387Z,15.07
2022-10-22T07:04:19.865Z,15.33
2022-10-22T07:06:46.334Z,15.49
2022-10-22T07:09:13.407Z,15.61
2022-10-22T07:11:42.744Z,15.75
2022-10-22T07:14:09.777Z,16.08
2022-10-22T07:16:36.346Z,16.35
2022-10-22T07:19:04.059Z,16.57
2022-10-22T07:21:31.165Z,16.87
2022-10-22T07:23:58.323Z,17.07
2022-10-22T07:26:25.046Z,16.99
2022-10-22T07:28:51.912Z,16.68
2022-10-22T07:31:21.224Z,16.85
2022-10-22T07:33:47.722Z,16.83
2022-10-22T07:36:15.612Z,16.73
2022-10-22T07:38:42.110Z,16.77
2022-10-22T07:41:08.601Z,16.69
2022-10-22T07:43:35.232Z,16.59
2022-10-22T07:46:01.686Z,16.66
2022-10-22T07:48:28.646Z,16.67
2022-10-22T07:50:55.286Z,16.88
2022-10-22T07:53:24.561Z,16.95
2022-10-22T07:55:51.839Z,16.99
2022-10-22T07:58:19.207Z,17.28
2022-10-22T08:00:46.303Z,17.41
2022-10-22T08:03:15.523Z,17.48
2022-10-22T08:05:42.492Z,17.53
2022-10-22T08:08:16.235Z,17.53
2022-10-22T08:10:43.561Z,17.31
2022-10-22T08:13:13.078Z,17.32
2022-10-22T08:15:40.260Z,17.24
2022-10-22T08:18:06.927Z,17.42
2022-10-22T08:20:33.455Z,17.58
2022-10-22T08:23:00.135Z,17.61
2022-10-22T08:25:27.230Z,17.56
2022-10-22T08:27:54.114Z,17.50
2022-10-22T08:30:20.686Z,17.60
2022-10-22T08:32:49.333Z,17.60
2022-10-22T08:35:18.128Z,17.56
2022-10-22T08:37:44.788Z,17.60
2022-10-22T08:40:21.730Z,17.71
2022-10-22T08:42:54.376Z,17.58
2022-10-22T08:45:34.467Z,17.43
2022-10-22T08:48:13.505Z,17.27
2022-10-22T08:50:44.084Z,17.26
2022-10-22T08:53:16.475Z,17.20
2022-10-22T08:55:43.086Z,17.32
2022-10-22T08:58:22.218Z,17.26
2022-10-22T09:01:13.352Z,17.01
2022-10-22T09:04:02.007Z,17.08
2022-10-22T09:06:31.557Z,17.15
2022-10-22T09:08:59.883Z,17.10
2022-10-22T09:11:33.472Z,16.96
2022-10-22T09:14:00.844Z,17.02
2022-10-22T09:16:36.508Z,16.87
2022-10-22T09:19:32.887Z,16.93
2022-10-22T09:22:14.381Z,16.98
2022-10-22T09:24:48.676Z,16.86
2022-10-22T09:27:19.654Z,16.39
2022-10-22T09:29:48.578Z,16.32
2022-10-22T09:32:20.206Z,16.35
2022-10-22T09:34:49.061Z,16.55
2022-10-22T09:37:19.844Z,16.57
2022-10-22T09:39:55.999Z,16.49
2022-10-22T09:42:23.011Z,16.49
2022-10-22T09:44:58.823Z,16.56
2022-10-22T09:47:43.570Z,16.49
2022-10-22T09:50:28.681Z,16.46
2022-10-22T09:53:17.919Z,16.30
2022-10-22T09:55:46.035Z,16.38
2022-10-22T09:58:13.918Z,16.43
2022-10-22T10:00:43.661Z,16.33
2022-10-22T10:03:17.735Z,16.29
2022-10-22T10:05:47.679Z,16.51
2022-10-22T10:08:14.997Z,16.69
2022-10-22T10:11:07.798Z,16.80
2022-10-22T10:14:09.784Z,16.78
2022-10-22T10:17:28.724Z,16.93
2022-10-22T10:19:59.976Z,16.93
2022-10-22T10:22:41.632Z,16.95
2022-10-22T10:25:26.695Z,16.89
2022-10-22T10:28:17.767Z,16.92
2022-10-22T10:30:54.810Z,16.71
2022-10-22T10:33:30.522Z,16.69
2022-10-22T10:36:12.527Z,16.67
2022-10-22T10:39:05.203Z,16.89
2022-10-22T10:42:02.860Z,16.94
2022-10-22T10:44:55.278Z,17.08
2022-10-22T10:47:53.932Z,17.19
2022-10-22T10:50:44.944Z,17.15
2022-10-22T10:53:35.792Z,17.08
2022-10-22T10:56:11.058Z,17.20
2022-10-22T10:58:52.385Z,17.03
2022-10-22T11:01:29.465Z,17.26
2022-10-22T11:04:21.751Z,17.40
2022-10-22T11:06:49.521Z,17.38
2022-10-22T11:09:23.033Z,17.40
2022-10-22T11:12:05.917Z,17.46
2022-10-22T11:14:37.994Z,17.44
2022-10-22T11:17:09.621Z,17.54
2022-10-22T11:20:12.379Z,17.30
2022-10-22T11:23:00.367Z,17.19
2022-10-22T11:25:34.471Z,17.44
2022-10-22T11:28:31.139Z,17.58
2022-10-22T11:31:08.517Z,17.54
2022-10-22T11:34:10.050Z,17.46
2022-10-22T11:36:42.629Z,17.30
2022-10-22T11:39:30.079Z,17.41
2022-10-22T11:41:59.044Z,17.52
2022-10-22T11:44:25.509Z,17.56
2022-10-22T11:47:08.404Z,17.70
2022-10-22T11:49:43.677Z,17.49
2022-10-22T11:52:33.098Z,17.77
2022-10-22T11:55:03.446Z,17.76
2022-10-22T11:57:38.146Z,17.47
2022-10-22T12:00:40.580Z,17.63
2022-10-22T12:03:17.587Z,17.60
2022-10-22T12:05:45.867Z,17.64
2022-10-22T12:08:20.375Z,17.77
2022-10-22T12:11:12.685Z,17.90
2022-10-22T12:14:11.974Z,17.98
2022-10-22T12:16:55.591Z,18.07
2022-10-22T12:19:32.708Z,18.09
2022-10-22T12:22:13.442Z,18.05
2022-10-22T12:24:49.226Z,18.14
2022-10-22T12:27:25.598Z,18.43
2022-10-22T12:29:57.755Z,18.44
2022-10-22T12:32:33.147Z,18.62
2022-10-22T12:35:10.536Z,18.63
2022-10-22T12:37:38.219Z,18.66
2022-10-22T12:40:22.249Z,18.47
2022-10-22T12:43:04.978Z,18.42
2022-10-22T12:45:34.760Z,18.37
2022-10-22T12:48:03.877Z,18.33
2022-10-22T12:50:40.667Z,18.51
2022-10-22T12:53:14.295Z,18.52
2022-10-22T12:55:41.361Z,18.61
2022-10-22T12:58:08.623Z,18.68
2022-10-22T13:00:35.954Z,18.68
2022-10-22T13:03:05.947Z,18.80
2022-10-22T13:05:33.068Z,18.84
2022-10-22T13:08:10.247Z,18.77
2022-10-22T13:10:47.038Z,18.77
2022-10-22T13:13:44.557Z,18.71
2022-10-22T13:16:22.546Z,18.85
2022-10-22T13:18:49.073Z,18.95
2022-10-22T13:21:45.226Z,18.84
2022-10-22T13:24:23.797Z,18.93
2022-10-22T13:26:52.573Z,19.03
2022-10-22T13:29:20.938Z,18.66
2022-10-22T13:31:51.930Z,18.85
2022-10-22T13:34:20.973Z,18.71
2022-10-22T13:36:48.370Z,18.77
2022-10-22T13:39:20.438Z,18.87
2022-10-22T13:41:47.262Z,18.92
2022-10-22T13:44:13.772Z,18.87
2022-10-22T13:46:43.531Z,19.00
2022-10-22T13:49:18.533Z,19.06
2022-10-22T13:51:45.610Z,19.22
2022-10-22T13:54:17.759Z,19.10
2022-10-22T13:56:44.568Z,19.19
2022-10-22T13:59:11.103Z,19.18
2022-10-22T14:01:38.192Z,19.27
2022-10-22T14:04:06.775Z,19.30
2022-10-22T14:09:04.280Z,19.29
2022-10-22T14:11:31.243Z,19.31
2022-10-22T14:13:57.754Z,19.29
2022-10-22T14:16:26.768Z,19.28
2022-10-22T14:18:54.539Z,19.35
2022-10-22T14:21:21.053Z,19.42
2022-10-22T14:23:48.389Z,19.34
2022-10-22T14:26:22.423Z,19.29
2022-10-22T14:29:08.734Z,19.29
2022-10-22T14:31:37.161Z,19.49
2022-10-22T14:34:04.065Z,19.50
2022-10-22T14:36:31.524Z,19.57
2022-10-22T14:38:58.006Z,19.78
2022-10-22T14:41:25.995Z,19.86
2022-10-22T14:43:52.780Z,19.88
2022-10-22T14:46:19.730Z,19.67
2022-10-22T14:48:46.668Z,19.86
2022-10-22T14:51:22.297Z,19.59
2022-10-22T14:53:48.792Z,19.50
2022-10-22T14:56:17.920Z,19.68
2022-10-22T14:58:44.557Z,19.56
2022-10-22T15:01:11.103Z,19.55
2022-10-22T15:03:38.494Z,19.61
2022-10-22T15:06:05.663Z,19.58
2022-10-22T15:08:32.359Z,19.62
2022-10-22T15:11:06.433Z,19.42
2022-10-22T15:13:33.554Z,19.35
2022-10-22T15:16:00.104Z,19.40
2022-10-22T15:18:30.607Z,19.42
2022-10-22T15:20:58.069Z,19.38
2022-10-22T15:23:24.948Z,19.83
2022-10-22T15:25:51.450Z,19.96
2022-10-22T15:28:18.307Z,19.91
2022-10-22T15:30:44.743Z,19.75
2022-10-22T15:33:11.213Z,19.68
2022-10-22T15:35:37.674Z,19.50
2022-10-22T15:38:04.176Z,19.45
2022-10-22T15:40:30.640Z,19.36
2022-10-22T15:42:57.089Z,19.36
2022-10-22T15:45:23.675Z,19.36
2022-10-22T15:47:50.395Z,19.25
2022-10-22T15:50:17.614Z,19.15
2022-10-22T15:52:44.132Z,19.03
2022-10-22T15:55:10.827Z,18.91
2022-10-22T15:57:38.599Z,18.77
2022-10-22T16:00:08.242Z,18.62
2022-10-22T16:02:34.802Z,18.43
2022-10-22T16:05:01.533Z,18.23
2022-10-22T16:07:28.134Z,18.26
2022-10-22T16:09:58.372Z,18.12
2022-10-22T16:12:24.980Z,17.97
2022-10-22T16:14:51.900Z,17.98
2022-10-22T16:17:18.488Z,17.88
2022-10-22T16:19:44.998Z,17.74
2022-10-22T16:22:11.471Z,17.71
2022-10-22T16:24:38.269Z,17.56
2022-10-22T16:27:04.845Z,17.44
2022-10-22T16:29:31.326Z,17.25
2022-10-22T16:31:57.842Z,16.98
2022-10-22T16:34:26.688Z,16.94
2022-10-22T16:36:53.700Z,16.88
2022-10-22T16:39:20.256Z,16.66
2022-10-22T16:41:46.818Z,16.57
2022-10-22T16:44:14.376Z,16.44
2022-10-22T16:46:41.489Z,16.30
2022-10-22T16:49:08.423Z,16.18
2022-10-22T16:51:36.023Z,16.01
2022-10-22T16:54:03.740Z,15.95
2022-10-22T16:56:32.215Z,15.74
2022-10-22T16:58:58.748Z,15.57
2022-10-22T17:01:27.705Z,15.80
2022-10-22T17:03:54.741Z,15.86
2022-10-22T17:06:22.168Z,15.82
2022-10-22T17:08:48.850Z,15.70
2022-10-22T17:11:18.276Z,15.60
2022-10-22T17:13:46.298Z,15.63
2022-10-22T17:16:14.015Z,15.68
2022-10-22T17:18:41.605Z,15.77
2022-10-22T17:21:09.411Z,15.79
2022-10-22T17:23:35.953Z,15.86
2022-10-22T17:26:05.120Z,15.64
2022-10-22T17:28:31.606Z,15.81
2022-10-22T17:31:02.529Z,15.73
2022-10-22T17:33:29.098Z,15.84
2022-10-22T17:35:55.584Z,15.83
2022-10-22T17:38:22.033Z,15.84
2022-10-22T17:40:48.810Z,15.83
2022-10-22T17:43:15.278Z,15.81
2022-10-22T17:45:41.729Z,15.67
2022-10-22T17:48:08.520Z,15.70
2022-10-22T17:50:35.102Z,15.61
2022-10-22T17:53:01.872Z,15.54
2022-10-22T17:55:28.317Z,15.54
2022-10-22T17:57:54.783Z,15.28
2022-10-22T18:00:21.284Z,15.37
2022-10-22T18:02:48.976Z,15.27
2022-10-22T18:05:15.504Z,15.31
2022-10-22T18:07:41.944Z,15.36
2022-10-22T18:10:08.900Z,15.21
2022-10-22T18:12:35.589Z,15.16
2022-10-22T18:15:02.781Z,15.10
2022-10-22T18:17:31.787Z,15.03
2022-10-22T18:20:00.013Z,15.00
2022-10-22T18:22:26.977Z,14.75
2022-10-22T18:24:53.529Z,14.74
2022-10-22T18:27:20.040Z,14.96
2022-10-22T18:29:49.781Z,15.09
2022-10-22T18:32:16.683Z,14.89
2022-10-22T18:34:43.510Z,14.83
2022-10-22T18:37:10.030Z,14.87
2022-10-22T18:39:36.488Z,14.79
2022-10-22T18:42:03.097Z,14.92
2022-10-22T18:44:29.570Z,14.93
2022-10-22T18:46:56.036Z,14.84
2022-10-22T18:49:22.695Z,14.82
2022-10-22T18:51:49.193Z,14.76
2022-10-22T18:54:23.192Z,14.93
2022-10-22T18:56:50.261Z,14.95
2022-10-22T18:59:21.713Z,14.72
2022-10-22T19:01:48.532Z,14.66
2022-10-22T19:04:15.154Z,14.73
2022-10-22T19:06:45.345Z,14.57
2022-10-22T19:09:13.545Z,14.52
2022-10-22T19:11:40.174Z,14.54
2022-10-22T19:14:06.890Z,14.58
2022-10-22T19:16:33.353Z,14.65
2022-10-22T19:19:02.858Z,14.60
2022-10-22T19:21:29.616Z,14.71
2022-10-22T19:23:57.382Z,14.69
2022-10-22T19:26:24.524Z,14.70
2022-10-22T19:28:50.983Z,14.75
2022-10-22T19:31:19.571Z,14.73
2022-10-22T19:33:46.077Z,14.76
2022-10-22T19:36:14.415Z,14.77
2022-10-22T19:38:43.312Z,14.77
2022-10-22T19:41:11.164Z,14.77
2022-10-22T19:43:37.733Z,14.80
2022-10-22T19:46:05.105Z,15.02
2022-10-22T19:48:31.681Z,15.09
2022-10-22T19:51:03.453Z,15.18
2022-10-22T19:53:30.837Z,15.06
2022-10-22T19:56:00.812Z,15.10
2022-10-22T19:58:28.439Z,15.30
2022-10-22T20:00:55.325Z,15.35
2022-10-22T20:03:21.981Z,15.33
2022-10-22T20:05:50.486Z,15.38
2022-10-22T20:08:20.212Z,15.27
2022-10-22T20:10:50.379Z,15.29
2022-10-22T20:13:16.772Z,15.22
2022-10-22T20:15:43.487Z,15.13
2022-10-22T20:18:09.974Z,14.90
2022-10-22T20:20:39.285Z,14.84
2022-10-22T20:23:05.894Z,14.79
2022-10-22T20:25:32.344Z,14.93
2022-10-22T20:27:58.961Z,14.97
2022-10-22T20:30:25.447Z,14.84
2022-10-22T20:32:52.011Z,14.82
2022-10-22T20:35:18.976Z,14.76
2022-10-22T20:37:46.027Z,14.77
2022-10-22T20:40:12.986Z,14.98
2022-10-22T20:42:39.986Z,15.05
2022-10-22T20:45:07.428Z,15.08
2022-10-22T20:47:44.598Z,15.04
2022-10-22T20:50:19.111Z,15.17
2022-10-22T20:52:45.743Z,15.17
2022-10-22T20:55:13.751Z,15.11
2022-10-22T20:57:40.703Z,15.00
2022-10-22T21:00:07.973Z,15.01
2022-10-22T21:02:34.788Z,15.05
2022-10-22T21:05:01.765Z,15.02
2022-10-22T21:07:28.269Z,14.98
2022-10-22T21:09:54.726Z,15.03
2022-10-22T21:12:21.214Z,14.82
2022-10-22T21:14:47.674Z,14.84
2022-10-22T21:17:14.541Z,14.90
2022-10-22T21:19:41.060Z,14.85
2022-10-22T21:22:07.930Z,14.73
2022-10-22T21:24:34.432Z,14.82
2022-10-22T21:27:00.963Z,14.87
2022-10-22T21:29:27.519Z,14.83
2022-10-22T21:31:54.020Z,14.61
2022-10-22T21:34:20.485Z,14.66
2022-10-22T21:39:19.087Z,14.72
2022-10-22T21:41:45.585Z,14.57
2022-10-22T21:44:12.107Z,14.54
2022-10-22T21:46:38.619Z,14.64
2022-10-22T21:49:05.098Z,14.53
2022-10-22T21:51:33.441Z,14.47
2022-10-22T21:54:00.166Z,14.34
2022-10-22T21:56:28.915Z,14.43
2022-10-22T21:58:55.863Z,14.46
2022-10-22T22:01:22.813Z,14.39
2022-10-22T22:03:49.700Z,14.32
2022-10-22T22:06:21.664Z,14.35
2022-10-22T22:08:49.704Z,14.18
2022-10-22T22:11:18.557Z,14.19
2022-10-22T22:13:45.857Z,14.14
2022-10-22T22:16:15.100Z,14.18
2022-10-22T22:18:42.254Z,14.25
2022-10-22T22:21:11.707Z,14.09
2022-10-22T22:23:40.411Z,14.15
2022-10-22T22:26:07.213Z,14.20
2022-10-22T22:28:34.015Z,14.27
2022-10-22T22:31:00.633Z,14.35
2022-10-22T22:33:28.453Z,14.28
2022-10-22T22:35:58.397Z,14.24
2022-10-22T22:38:24.872Z,14.31
2022-10-22T22:40:51.416Z,14.26
2022-10-22T22:43:18.405Z,14.33
2022-10-22T22:45:45.026Z,14.28
2022-10-22T22:48:12.069Z,14.33
2022-10-22T22:50:38.650Z,14.29
2022-10-22T22:53:05.110Z,14.30
2022-10-22T22:55:32.080Z,14.19
2022-10-22T22:57:58.583Z,14.17
2022-10-22T23:00:25.399Z,14.27
2022-10-22T23:02:55.426Z,14.25
2022-10-22T23:05:21.894Z,14.19
2022-10-22T23:07:48.921Z,14.19
2022-10-22T23:10:15.470Z,14.06
2022-10-22T23:12:42.102Z,13.94
2022-10-22T23:15:09.117Z,13.97
2022-10-22T23:20:08.003Z,14.21
2022-10-22T23:22:34.468Z,14.27
2022-10-22T23:25:01.094Z,13.92
2022-10-22T23:27:27.575Z,14.05
2022-10-22T23:29:54.041Z,14.08
2022-10-22T23:32:20.489Z,14.13
2022-10-22T23:34:46.963Z,13.86
2022-10-22T23:37:13.428Z,13.92
2022-10-22T23:39:40.251Z,13.98
2022-10-22T23:42:06.699Z,13.91
2022-10-22T23:44:33.240Z,13.95
2022-10-22T23:46:59.819Z,13.95
2022-10-22T23:49:26.438Z,14.01
2022-10-22T23:51:53.295Z,14.06
2022-10-22T23:54:19.761Z,14.07
2022-10-22T23:56:46.435Z,13.97
